Time;durP1;ratioP1;P1;durP2;ratioP2;P2;SDS_P1;SDS_P2;PMS_P1;PMS_P2;Temp;Humidity;BMP_temperature;BMP_pressure;BME280_temperature;BME280_humidity;BME280_pressure;Samples;Min_cycle;Max_cycle;Signal;HPM_P1;HPM_P2
2022/06/03 00:01:12;;;;;;;1.40;1.30;;;12.90;99.90;;;;;;4993313;28;20410;-80
2022/06/03 00:03:53;;;;;;;2.40;1.50;;;12.90;99.90;;;;;;4958539;28;20114;-80
2022/06/03 00:06:49;;;;;;;1.65;1.25;;;12.90;99.90;;;;;;4944756;28;20077;-79
2022/06/03 00:09:36;;;;;;;1.98;1.27;;;12.90;99.90;;;;;;4968247;28;20100;-79
2022/06/03 00:12:09;;;;;;;1.60;1.20;;;12.90;99.90;;;;;;4982273;28;20309;-79
2022/06/03 00:14:49;;;;;;;1.63;1.25;;;12.90;99.90;;;;;;4963763;28;20157;-78
2022/06/03 00:17:37;;;;;;;2.17;1.63;;;12.90;99.90;;;;;;4965277;28;20286;-80
2022/06/03 00:20:26;;;;;;;1.27;1.05;;;12.80;99.90;;;;;;4993820;28;20140;-79
2022/06/03 00:23:35;;;;;;;1.50;1.38;;;12.80;99.90;;;;;;4998845;28;20149;-79
2022/06/03 00:26:32;;;;;;;1.52;1.10;;;12.80;99.90;;;;;;5001500;28;20045;-80
2022/06/03 00:29:17;;;;;;;1.10;1.00;;;12.80;99.90;;;;;;4988310;28;20116;-79
2022/06/03 00:32:04;;;;;;;1.25;1.00;;;12.70;99.90;;;;;;4987819;28;20089;-80
2022/06/03 00:34:46;;;;;;;1.77;1.25;;;12.70;99.90;;;;;;4989404;28;20053;-79
2022/06/03 00:37:50;;;;;;;1.60;1.05;;;12.70;99.90;;;;;;4977664;28;20501;-80
2022/06/03 00:40:38;;;;;;;1.92;1.13;;;12.60;99.90;;;;;;4985934;28;20125;-79
2022/06/03 00:43:23;;;;;;;1.05;0.93;;;12.50;99.90;;;;;;5002485;28;20128;-80
2022/06/03 00:46:18;;;;;;;1.33;0.85;;;12.50;99.90;;;;;;4996662;28;20054;-80
2022/06/03 00:49:21;;;;;;;1.40;1.02;;;12.40;99.90;;;;;;4955587;28;20050;-78
2022/06/03 00:52:03;;;;;;;1.10;0.85;;;12.40;99.90;;;;;;4985686;28;20133;-79
2022/06/03 00:54:55;;;;;;;1.88;0.90;;;12.40;99.90;;;;;;4999577;28;20153;-79
2022/06/03 00:57:53;;;;;;;0.80;0.80;;;12.30;99.90;;;;;;4956722;28;20125;-79
2022/06/03 01:00:31;;;;;;;1.10;0.77;;;12.30;99.90;;;;;;5004355;28;20438;-79
2022/06/03 01:03:12;;;;;;;0.77;0.77;;;12.30;99.90;;;;;;4968232;28;20081;-79
2022/06/03 01:05:48;;;;;;;1.13;0.90;;;12.30;99.90;;;;;;4982847;28;20085;-79
2022/06/03 01:08:24;;;;;;;0.80;0.68;;;12.20;99.90;;;;;;4983997;28;20134;-79
2022/06/03 01:10:59;;;;;;;0.70;0.60;;;12.20;99.90;;;;;;5001097;28;20418;-80
2022/06/03 01:14:01;;;;;;;0.68;0.60;;;12.10;99.90;;;;;;4983623;28;20481;-80
2022/06/03 01:16:42;;;;;;;1.00;0.82;;;12.10;99.90;;;;;;4990903;28;20450;-81
2022/06/03 01:20:04;;;;;;;1.10;0.95;;;12.10;99.90;;;;;;4984013;28;20378;-80
2022/06/03 01:22:46;;;;;;;0.95;0.75;;;12.10;99.90;;;;;;4957811;28;20554;-80
2022/06/03 01:25:37;;;;;;;0.82;0.52;;;12.10;99.90;;;;;;4997978;28;20128;-80
2022/06/03 01:28:16;;;;;;;0.60;0.60;;;12.10;99.90;;;;;;4983030;28;20168;-80
2022/06/03 01:31:14;;;;;;;0.93;0.70;;;12.10;99.90;;;;;;4990916;28;20096;-79
2022/06/03 01:33:55;;;;;;;0.80;0.60;;;12.00;99.90;;;;;;4960539;28;20074;-79
2022/06/03 01:37:00;;;;;;;0.90;0.80;;;12.00;99.90;;;;;;4973851;28;20057;-80
2022/06/03 01:39:35;;;;;;;0.90;0.60;;;12.00;99.90;;;;;;4913129;29;20158;-79
2022/06/03 01:42:23;;;;;;;0.77;0.68;;;12.00;99.90;;;;;;4998433;28;20137;-80
2022/06/03 01:45:13;;;;;;;0.65;0.60;;;11.90;99.90;;;;;;5009558;28;20119;-79
2022/06/03 01:47:58;;;;;;;0.55;0.52;;;11.90;99.90;;;;;;4974628;28;20476;-79
2022/06/03 01:51:13;;;;;;;1.58;1.05;;;11.90;99.90;;;;;;4968865;28;20046;-80
2022/06/03 01:53:54;;;;;;;1.13;0.73;;;12.00;99.90;;;;;;4962986;28;20521;-79
2022/06/03 01:56:59;;;;;;;0.95;0.60;;;12.00;99.90;;;;;;4982252;28;20073;-79
2022/06/03 01:59:47;;;;;;;1.10;0.85;;;12.10;99.90;;;;;;5003132;28;20133;-79
2022/06/03 02:02:40;;;;;;;1.00;0.60;;;12.10;99.90;;;;;;4970267;28;20414;-80
2022/06/03 02:05:16;;;;;;;1.38;0.90;;;12.20;99.90;;;;;;4975373;28;20227;-79
2022/06/03 02:08:11;;;;;;;0.80;0.75;;;12.20;99.90;;;;;;4988698;28;20081;-80
2022/06/03 02:10:58;;;;;;;1.08;0.80;;;12.20;99.90;;;;;;4955276;28;20137;-79
2022/06/03 02:14:06;;;;;;;1.38;1.02;;;12.30;99.90;;;;;;4984639;28;20128;-80
2022/06/03 02:16:56;;;;;;;1.33;1.20;;;12.30;99.90;;;;;;4973424;28;20069;-80
2022/06/03 02:19:51;;;;;;;1.30;1.20;;;12.30;99.90;;;;;;4956143;28;20427;-80
2022/06/03 02:22:40;;;;;;;1.10;0.82;;;12.40;99.90;;;;;;4987490;28;20081;-79
2022/06/03 02:25:36;;;;;;;1.15;1.00;;;12.40;99.90;;;;;;5006692;28;20097;-80
2022/06/03 02:28:16;;;;;;;1.10;1.00;;;12.40;99.90;;;;;;4972512;28;20173;-79
2022/06/03 02:30:46;;;;;;;1.20;1.10;;;12.50;99.90;;;;;;4957229;28;20069;-79
2022/06/03 02:33:28;;;;;;;1.35;1.00;;;12.50;99.90;;;;;;4994465;28;20065;-79
2022/06/03 02:36:02;;;;;;;1.30;1.20;;;12.50;99.90;;;;;;4983651;28;20137;-79
2022/06/03 02:38:58;;;;;;;2.00;1.33;;;12.50;99.90;;;;;;4968420;28;20076;-79
2022/06/03 02:41:46;;;;;;;1.85;1.35;;;12.60;99.90;;;;;;4967249;28;20058;-79
2022/06/03 02:44:22;;;;;;;1.15;0.90;;;12.50;99.90;;;;;;4991198;28;20141;-79
2022/06/03 02:47:18;;;;;;;1.63;1.33;;;12.50;99.90;;;;;;5004972;28;20097;-79
2022/06/03 02:49:59;;;;;;;1.50;1.10;;;12.50;99.90;;;;;;4972570;28;20710;-80
2022/06/03 02:52:50;;;;;;;1.23;0.80;;;12.50;99.90;;;;;;5003416;28;20077;-80
2022/06/03 02:55:30;;;;;;;2.35;1.23;;;12.50;99.90;;;;;;5005786;28;20140;-79
2022/06/03 02:58:15;;;;;;;1.77;1.20;;;12.50;99.90;;;;;;4956045;28;20050;-79
2022/06/03 03:01:23;;;;;;;1.90;1.48;;;12.40;99.90;;;;;;4988549;28;20084;-79
2022/06/03 03:04:08;;;;;;;1.48;1.00;;;12.40;99.90;;;;;;4972466;28;20694;-79
2022/06/03 03:06:41;;;;;;;3.97;1.35;;;12.40;99.90;;;;;;4998031;28;20136;-79
2022/06/03 03:09:32;;;;;;;1.27;1.15;;;12.40;99.90;;;;;;4963242;28;20129;-80
2022/06/03 03:12:32;;;;;;;1.50;1.30;;;12.40;99.90;;;;;;4993986;28;20462;-79
2022/06/03 03:15:37;;;;;;;1.90;1.63;;;12.40;99.90;;;;;;4967087;28;20133;-80
2022/06/03 03:18:23;;;;;;;1.45;1.27;;;12.40;99.90;;;;;;4989357;28;20454;-79
2022/06/03 03:21:15;;;;;;;1.80;1.20;;;12.40;99.90;;;;;;4991219;28;20108;-79
2022/06/03 03:23:46;;;;;;;1.60;1.30;;;12.40;99.90;;;;;;4960223;28;20136;-79
2022/06/03 03:26:43;;;;;;;1.63;1.10;;;12.50;99.90;;;;;;5004522;28;20210;-80
2022/06/03 03:29:37;;;;;;;1.65;1.25;;;12.50;99.90;;;;;;4988142;28;20440;-80
2022/06/03 03:32:26;;;;;;;2.00;1.23;;;12.50;99.90;;;;;;4986814;28;20145;-80
2022/06/03 03:35:16;;;;;;;1.45;1.20;;;12.50;99.90;;;;;;4990584;28;20088;-80
2022/06/03 03:38:14;;;;;;;1.40;1.15;;;12.50;99.90;;;;;;4986062;28;20121;-78
2022/06/03 03:41:25;;;;;;;1.67;1.17;;;12.50;99.90;;;;;;4973986;28;20373;-79
2022/06/03 03:44:19;;;;;;;1.25;0.95;;;12.50;99.90;;;;;;4973108;28;20217;-79
2022/06/03 03:47:14;;;;;;;1.23;1.13;;;12.50;99.90;;;;;;5005772;28;20049;-79
2022/06/03 03:50:12;;;;;;;1.27;1.00;;;12.50;99.90;;;;;;4975438;28;20042;-80
2022/06/03 03:53:14;;;;;;;1.35;1.05;;;12.50;99.90;;;;;;4971678;28;20506;-79
2022/06/03 03:56:01;;;;;;;1.10;1.00;;;12.50;99.90;;;;;;4970558;28;20362;-78
2022/06/03 03:58:40;;;;;;;1.02;0.90;;;12.50;99.90;;;;;;4958967;28;20045;-79
2022/06/03 04:01:37;;;;;;;1.50;1.10;;;12.40;99.90;;;;;;4974124;28;20130;-79
2022/06/03 04:04:42;;;;;;;1.08;0.75;;;12.40;99.90;;;;;;4995203;28;20046;-80
2022/06/03 04:07:09;;;;;;;1.08;0.93;;;12.30;99.90;;;;;;4956124;28;20527;-79
2022/06/03 04:09:58;;;;;;;1.20;0.90;;;12.30;99.90;;;;;;4974264;28;20082;-79
2022/06/03 04:12:54;;;;;;;1.40;0.90;;;12.20;99.90;;;;;;4960743;28;20101;-79
2022/06/03 04:15:46;;;;;;;1.10;1.00;;;12.20;99.90;;;;;;4963469;28;20065;-79
2022/06/03 04:18:47;;;;;;;1.00;0.90;;;12.10;99.90;;;;;;4988141;28;20469;-79
2022/06/03 04:21:35;;;;;;;1.00;0.80;;;12.10;99.90;;;;;;4941912;28;20579;-79
2022/06/03 04:24:39;;;;;;;1.17;1.00;;;12.10;99.90;;;;;;4994881;28;20089;-79
2022/06/03 04:27:18;;;;;;;1.20;0.82;;;12.00;99.90;;;;;;4977080;28;20085;-80
2022/06/03 04:30:04;;;;;;;1.20;0.90;;;12.00;99.90;;;;;;4974829;28;20418;-80
2022/06/03 04:32:34;;;;;;;1.20;0.70;;;12.00;99.90;;;;;;4990903;28;20081;-80
2022/06/03 04:35:12;;;;;;;0.77;0.68;;;11.90;99.90;;;;;;4987548;28;20057;-80
2022/06/03 04:38:00;;;;;;;1.38;0.80;;;11.90;99.90;;;;;;4988560;28;20645;-80
2022/06/03 04:40:26;;;;;;;0.65;0.65;;;11.90;99.90;;;;;;4981735;28;20128;-78
2022/06/03 04:43:26;;;;;;;0.70;0.70;;;11.80;99.90;;;;;;4986703;28;20049;-78
2022/06/03 04:46:21;;;;;;;1.08;0.90;;;11.80;99.90;;;;;;4958384;28;20064;-79
2022/06/03 04:49:15;;;;;;;1.13;0.90;;;11.80;99.90;;;;;;4980297;28;20112;-79
2022/06/03 04:52:13;;;;;;;1.23;0.70;;;11.80;99.90;;;;;;4999051;28;20050;-77
2022/06/03 04:55:13;;;;;;;1.75;1.00;;;11.90;99.90;;;;;;5001120;28;20132;-77
2022/06/03 04:57:58;;;;;;;1.60;1.02;;;11.90;99.90;;;;;;4980128;28;20365;-77
2022/06/03 05:00:34;;;;;;;1.17;0.90;;;12.00;99.90;;;;;;4998423;28;20084;-76
2022/06/03 05:03:21;;;;;;;1.75;0.90;;;12.00;99.90;;;;;;4979299;28;20128;-77
2022/06/03 05:06:06;;;;;;;1.38;0.95;;;12.10;99.90;;;;;;4977656;28;20050;-78
2022/06/03 05:08:43;;;;;;;1.25;1.00;;;12.20;99.90;;;;;;4978443;28;20133;-77
2022/06/03 05:11:44;;;;;;;1.02;0.85;;;12.20;99.90;;;;;;4979690;28;20096;-77
2022/06/03 05:14:23;;;;;;;1.00;0.90;;;12.30;99.90;;;;;;4980845;28;20050;-78
2022/06/03 05:16:53;;;;;;;0.88;0.73;;;12.40;99.90;;;;;;4996487;28;20055;-77
2022/06/03 05:19:27;;;;;;;0.82;0.80;;;12.40;99.90;;;;;;4994339;28;20332;-77
2022/06/03 05:22:14;;;;;;;1.25;0.88;;;12.50;99.90;;;;;;4978046;28;20141;-78
2022/06/03 05:25:02;;;;;;;1.05;0.93;;;12.60;99.90;;;;;;4958138;28;20133;-78
2022/06/03 05:27:34;;;;;;;0.73;0.70;;;12.70;99.90;;;;;;4991068;28;20890;-78
2022/06/03 05:30:04;;;;;;;1.25;0.98;;;12.90;99.90;;;;;;4990800;28;20108;-78
2022/06/03 05:33:01;;;;;;;1.50;1.00;;;13.10;99.90;;;;;;4972717;28;20108;-79
2022/06/03 05:35:42;;;;;;;1.42;1.00;;;13.30;99.90;;;;;;4990365;28;20440;-78
2022/06/03 05:38:23;;;;;;;1.45;1.00;;;13.50;99.90;;;;;;4975352;28;20056;-78
2022/06/03 05:40:52;;;;;;;1.38;1.20;;;13.60;99.90;;;;;;4989698;28;20133;-77
2022/06/03 05:43:56;;;;;;;1.77;1.27;;;13.70;99.90;;;;;;4968124;28;20468;-78
2022/06/03 05:46:33;;;;;;;1.77;1.40;;;13.80;99.90;;;;;;4965207;28;20104;-78
2022/06/03 05:49:32;;;;;;;2.13;1.27;;;14.00;99.90;;;;;;4965223;28;20045;-77
2022/06/03 05:52:26;;;;;;;1.10;0.88;;;14.00;99.90;;;;;;4959209;28;20527;-77
2022/06/03 05:55:16;;;;;;;1.05;0.95;;;14.20;99.90;;;;;;4997826;28;20513;-77
2022/06/03 05:57:54;;;;;;;1.55;1.13;;;14.30;99.90;;;;;;4989607;28;20046;-78
2022/06/03 06:00:43;;;;;;;1.17;0.95;;;14.20;99.90;;;;;;4965756;28;20225;-77
2022/06/03 06:03:18;;;;;;;0.85;0.85;;;14.30;99.90;;;;;;4998425;28;20462;-77
2022/06/03 06:06:06;;;;;;;0.70;0.65;;;14.30;99.90;;;;;;4982722;28;20382;-77
2022/06/03 06:09:07;;;;;;;1.90;1.23;;;14.40;99.90;;;;;;5000871;28;20064;-78
2022/06/03 06:11:59;;;;;;;1.63;0.93;;;14.30;99.90;;;;;;4966024;28;20086;-77
2022/06/03 06:14:31;;;;;;;1.65;1.40;;;14.30;99.90;;;;;;4976989;28;20723;-77
2022/06/03 06:17:18;;;;;;;1.38;1.05;;;14.20;99.90;;;;;;4982730;28;20644;-77
2022/06/03 06:19:46;;;;;;;1.10;1.00;;;14.20;99.90;;;;;;4981296;28;20102;-77
2022/06/03 06:22:20;;;;;;;1.70;1.13;;;14.10;99.90;;;;;;4963098;28;20064;-77
2022/06/03 06:25:05;;;;;;;2.17;1.40;;;14.00;99.90;;;;;;4979910;28;20050;-78
2022/06/03 06:27:38;;;;;;;1.20;1.05;;;14.00;99.90;;;;;;4957043;28;20169;-77
2022/06/03 06:30:25;;;;;;;2.20;1.27;;;14.00;99.90;;;;;;4970898;28;20454;-78
2022/06/03 06:33:19;;;;;;;2.10;1.65;;;14.00;99.90;;;;;;4982026;28;20546;-77
2022/06/03 06:36:06;;;;;;;1.42;1.20;;;14.00;99.90;;;;;;4984799;28;20129;-77
2022/06/03 06:39:04;;;;;;;1.63;1.23;;;14.00;99.90;;;;;;4972669;28;20479;-77
2022/06/03 06:41:37;;;;;;;2.25;1.33;;;14.00;99.90;;;;;;4988491;28;20173;-78
2022/06/03 06:44:26;;;;;;;2.28;1.40;;;14.10;99.90;;;;;;4981604;28;20078;-77
2022/06/03 06:47:26;;;;;;;2.55;1.40;;;14.20;99.90;;;;;;4954228;28;20143;-77
2022/06/03 06:50:15;;;;;;;1.70;1.40;;;14.20;99.90;;;;;;4953136;28;20475;-77
2022/06/03 06:53:02;;;;;;;1.38;1.20;;;14.30;99.90;;;;;;4961305;28;20462;-77
2022/06/03 06:55:47;;;;;;;1.35;1.20;;;14.40;99.90;;;;;;4976622;28;20073;-77
2022/06/03 06:58:42;;;;;;;1.90;1.48;;;14.40;99.90;;;;;;4973884;28;20489;-78
2022/06/03 07:01:18;;;;;;;1.90;1.40;;;14.40;99.90;;;;;;4975527;28;20050;-77
2022/06/03 07:03:58;;;;;;;2.03;1.50;;;14.50;99.90;;;;;;4964026;28;20046;-77
2022/06/03 07:06:27;;;;;;;2.33;1.20;;;14.60;99.90;;;;;;4981380;28;20081;-77
2022/06/03 07:09:25;;;;;;;1.95;1.48;;;14.60;99.90;;;;;;4977043;28;20061;-77
2022/06/03 07:12:04;;;;;;;1.63;1.48;;;14.70;99.90;;;;;;4972764;28;20089;-77
2022/06/03 07:14:33;;;;;;;1.30;1.20;;;14.80;99.90;;;;;;4977691;28;20164;-78
2022/06/03 07:20:13;;;;;;;1.45;1.30;;;15.00;99.90;;;;;;4964185;28;20057;-79
2022/06/03 07:22:47;;;;;;;1.95;1.45;;;15.00;99.90;;;;;;4961705;28;20089;-77
2022/06/03 07:25:33;;;;;;;2.47;1.45;;;15.10;99.90;;;;;;4971382;28;20081;-77
2022/06/03 07:28:23;;;;;;;2.15;1.38;;;15.20;99.90;;;;;;4958056;28;20248;-77
2022/06/03 07:31:02;;;;;;;1.60;1.30;;;15.20;99.90;;;;;;4949873;28;20169;-77
2022/06/03 07:33:29;;;;;;;1.95;1.45;;;15.30;99.90;;;;;;4950357;28;20057;-77
2022/06/03 07:36:04;;;;;;;1.88;1.65;;;15.30;99.90;;;;;;4974797;28;20082;-77
2022/06/03 07:38:54;;;;;;;2.55;1.67;;;15.40;99.90;;;;;;4956659;28;20046;-77
2022/06/03 07:41:30;;;;;;;2.03;1.50;;;15.40;99.90;;;;;;4962103;28;20180;-77
2022/06/03 07:43:59;;;;;;;2.80;1.63;;;15.50;99.90;;;;;;4980619;28;20046;-77
2022/06/03 07:46:39;;;;;;;1.52;1.40;;;15.50;99.90;;;;;;4956984;28;20176;-77
2022/06/03 07:49:05;;;;;;;1.40;1.30;;;15.60;99.90;;;;;;4949919;28;20384;-77
2022/06/03 07:51:39;;;;;;;1.48;1.27;;;15.70;99.90;;;;;;4970911;28;20517;-77
2022/06/03 07:54:14;;;;;;;1.77;1.15;;;15.80;99.90;;;;;;4947758;28;20591;-79
2022/06/03 07:56:40;;;;;;;1.08;0.93;;;15.90;99.90;;;;;;4958947;28;20164;-82
2022/06/03 07:59:17;;;;;;;1.67;1.00;;;16.00;99.90;;;;;;4953795;28;20545;-82
2022/06/03 08:01:55;;;;;;;1.80;1.35;;;16.00;99.90;;;;;;4975817;28;20460;-83
2022/06/03 08:04:30;;;;;;;1.45;1.30;;;16.20;99.90;;;;;;4991963;28;20494;-82
2022/06/03 08:13:19;;;;;;;1.13;0.93;;;16.40;99.90;;;;;;4978063;28;20131;-83
2022/06/03 08:15:54;;;;;;;1.30;0.88;;;16.60;99.90;;;;;;4953449;28;20046;-81
2022/06/03 08:18:21;;;;;;;0.80;0.80;;;16.70;99.90;;;;;;4991608;28;20512;-74
2022/06/03 08:20:55;;;;;;;1.90;1.70;;;16.80;99.90;;;;;;4972415;28;20850;-72
2022/06/03 08:23:21;;;;;;;2.47;1.35;;;16.90;99.90;;;;;;4960914;28;20561;-72
2022/06/03 08:25:50;;;;;;;1.38;1.10;;;17.10;99.90;;;;;;4971522;28;20058;-72
2022/06/03 08:28:20;;;;;;;1.27;1.02;;;17.20;99.90;;;;;;4976951;28;20046;-72
2022/06/03 08:30:48;;;;;;;1.48;1.13;;;17.40;99.90;;;;;;4968165;28;20113;-72
2022/06/03 08:33:15;;;;;;;1.63;1.02;;;17.60;99.90;;;;;;4974059;28;20045;-72
2022/06/03 08:35:43;;;;;;;2.22;1.58;;;17.70;99.90;;;;;;4985897;28;20137;-72
2022/06/03 08:38:13;;;;;;;1.30;1.20;;;18.00;99.90;;;;;;4966164;28;20744;-72
2022/06/03 08:41:04;;;;;;;1.83;1.20;;;18.20;99.90;;;;;;4961272;28;20140;-72
2022/06/03 08:43:52;;;;;;;1.48;1.20;;;18.40;99.90;;;;;;4973138;28;20172;-72
2022/06/03 08:46:36;;;;;;;1.45;1.05;;;18.60;99.90;;;;;;4986644;28;20148;-72
2022/06/03 08:49:06;;;;;;;1.50;1.20;;;18.70;99.90;;;;;;4943513;28;20487;-72
2022/06/03 08:52:03;;;;;;;1.00;0.90;;;18.80;99.90;;;;;;4961480;28;20130;-72
2022/06/03 08:54:42;;;;;;;2.00;1.08;;;18.90;99.90;;;;;;4964088;28;20145;-71
2022/06/03 08:57:19;;;;;;;1.17;0.93;;;18.90;99.90;;;;;;4984774;28;20426;-72
2022/06/03 08:59:55;;;;;;;1.75;1.17;;;19.10;99.90;;;;;;4965644;28;20139;-72
2022/06/03 09:02:29;;;;;;;1.50;1.10;;;19.00;99.90;;;;;;4955279;28;20092;-72
2022/06/03 09:05:00;;;;;;;1.20;1.10;;;19.00;99.90;;;;;;4978923;28;20065;-72
2022/06/03 09:07:39;;;;;;;1.05;0.90;;;19.10;99.90;;;;;;4938933;28;20038;-73
2022/06/03 09:10:17;;;;;;;2.20;1.48;;;19.30;99.90;;;;;;4961357;28;20077;-73
2022/06/03 09:13:00;;;;;;;2.63;1.30;;;19.40;99.90;;;;;;4980757;28;20497;-73
2022/06/03 09:15:27;;;;;;;;;;;19.50;99.90;;;;;;4967419;28;20172;-73
2022/06/03 09:18:00;;;;;;;1.88;1.27;;;19.70;99.90;;;;;;4983059;28;19979;-73
2022/06/03 09:20:33;;;;;;;;;;;19.70;99.90;;;;;;4945864;28;20180;-73
2022/06/03 09:23:05;;;;;;;1.55;1.40;;;19.70;99.90;;;;;;4993705;28;20068;-73
2022/06/03 09:25:32;;;;;;;1.88;1.15;;;19.70;99.90;;;;;;4976401;28;20060;-73
2022/06/03 09:28:00;;;;;;;1.63;1.40;;;19.80;99.90;;;;;;4974522;28;20053;-73
2022/06/03 09:30:31;;;;;;;2.22;1.80;;;19.80;99.90;;;;;;4962952;28;20061;-73
2022/06/03 09:32:59;;;;;;;2.20;1.60;;;19.70;99.90;;;;;;4978134;28;20145;-73
2022/06/03 09:35:27;;;;;;;1.70;1.50;;;19.80;99.90;;;;;;4981301;28;20140;-72
2022/06/03 09:37:57;;;;;;;2.58;2.00;;;20.00;99.90;;;;;;4958858;28;20140;-73
2022/06/03 09:40:31;;;;;;;2.25;1.83;;;20.00;99.90;;;;;;4958143;28;20126;-73
2022/06/03 09:43:13;;;;;;;2.05;1.55;;;20.10;99.90;;;;;;4970297;28;20046;-73
2022/06/03 09:45:41;;;;;;;;;;;20.30;99.90;;;;;;4965159;28;20130;-73
2022/06/03 09:48:09;;;;;;;1.85;1.42;;;20.60;99.90;;;;;;4976271;28;20025;-72
2022/06/03 09:50:36;;;;;;;1.65;1.52;;;20.90;99.90;;;;;;4983812;28;20490;-72
2022/06/03 09:53:07;;;;;;;1.50;1.30;;;21.30;99.90;;;;;;4961460;28;20069;-72
2022/06/03 09:55:43;;;;;;;2.17;1.45;;;21.60;99.90;;;;;;4976569;28;20137;-72
2022/06/03 09:58:15;;;;;;;1.80;1.30;;;21.90;99.90;;;;;;4979901;28;20054;-73
2022/06/03 10:00:53;;;;;;;1.67;1.27;;;22.10;99.90;;;;;;4943988;28;20046;-73
2022/06/03 10:03:20;;;;;;;3.25;1.40;;;22.50;99.90;;;;;;4977890;28;20354;-73
2022/06/03 10:05:49;;;;;;;2.50;1.55;;;22.70;99.90;;;;;;4977492;28;20496;-73
2022/06/03 10:08:19;;;;;;;1.67;1.20;;;22.60;99.90;;;;;;4963917;28;20122;-72
2022/06/03 10:13:33;;;;;;;1.52;1.13;;;22.80;99.90;;;;;;4991223;28;20141;-72
2022/06/03 10:16:00;;;;;;;1.80;1.38;;;22.90;99.90;;;;;;4979602;28;20060;-72
2022/06/03 10:18:40;;;;;;;1.08;0.90;;;22.80;99.90;;;;;;4989402;28;20453;-72
2022/06/03 10:21:07;;;;;;;1.02;0.85;;;22.90;99.90;;;;;;4969614;28;20502;-73
2022/06/03 10:23:44;;;;;;;1.10;0.90;;;23.10;99.90;;;;;;4995420;28;20196;-73
2022/06/03 10:26:26;;;;;;;2.05;1.30;;;23.40;99.90;;;;;;4981960;28;20152;-74
2022/06/03 10:28:54;;;;;;;1.20;1.10;;;23.30;99.80;;;;;;4998165;28;20127;-73
2022/06/03 10:31:26;;;;;;;1.73;1.40;;;23.30;99.80;;;;;;4982157;28;20422;-73
2022/06/03 10:34:00;;;;;;;2.63;1.80;;;23.40;98.50;;;;;;5004166;28;20161;-73
2022/06/03 10:36:30;;;;;;;1.80;1.27;;;23.30;97.80;;;;;;4996161;28;20042;-73
2022/06/03 10:38:57;;;;;;;1.88;1.48;;;23.30;97.10;;;;;;4980878;28;20149;-73
2022/06/03 10:41:31;;;;;;;2.53;1.27;;;23.40;97.90;;;;;;4978381;28;20624;-73
2022/06/03 10:43:58;;;;;;;1.52;1.23;;;23.50;97.90;;;;;;4988325;28;20085;-73
2022/06/03 10:46:30;;;;;;;3.20;1.50;;;23.60;97.50;;;;;;4993669;28;20143;-72
2022/06/03 10:49:00;;;;;;;1.58;1.27;;;23.50;97.30;;;;;;4994161;28;20046;-73
2022/06/03 11:02:39;;;;;;;1.80;1.25;;;23.70;95.20;;;;;;4980728;28;20115;-74
2022/06/03 11:05:26;;;;;;;1.52;1.20;;;23.50;94.90;;;;;;4981486;28;20231;-73
2022/06/03 11:08:02;;;;;;;1.65;1.45;;;23.60;96.30;;;;;;4963465;28;20129;-73
2022/06/03 11:10:52;;;;;;;2.13;1.42;;;23.50;94.60;;;;;;4975330;28;20477;-73
2022/06/03 11:13:30;;;;;;;2.30;1.65;;;23.50;95.20;;;;;;4964399;28;20445;-72
2022/06/03 11:16:19;;;;;;;2.13;1.20;;;23.30;94.20;;;;;;4995598;28;20053;-72
2022/06/03 11:18:46;;;;;;;2.17;1.65;;;23.20;94.40;;;;;;4973071;28;20450;-73
2022/06/03 11:21:29;;;;;;;1.40;1.00;;;23.40;94.60;;;;;;4993390;28;20311;-72
2022/06/03 11:23:56;;;;;;;2.08;1.20;;;23.50;94.10;;;;;;4994650;28;22544;-73
2022/06/03 11:26:37;;;;;;;1.38;1.15;;;23.60;93.30;;;;;;4977724;28;20522;-73
2022/06/03 11:29:15;;;;;;;1.33;1.02;;;23.60;93.10;;;;;;4978141;28;20089;-73
2022/06/03 11:31:44;;;;;;;1.50;1.20;;;23.70;92.90;;;;;;4956638;28;20046;-74
2022/06/03 11:34:19;;;;;;;2.17;1.40;;;23.90;93.10;;;;;;4981086;28;20691;-73
2022/06/03 11:36:50;;;;;;;2.35;1.40;;;23.90;93.10;;;;;;4974929;28;20256;-73
2022/06/03 11:39:40;;;;;;;2.80;1.98;;;24.10;93.60;;;;;;4977664;28;20137;-73
2022/06/03 11:42:15;;;;;;;2.05;1.58;;;24.30;92.20;;;;;;4945877;28;20854;-73
2022/06/03 11:44:54;;;;;;;1.80;1.23;;;24.50;92.60;;;;;;4960868;28;20563;-73
2022/06/03 11:47:26;;;;;;;1.75;1.50;;;24.80;92.00;;;;;;4973055;28;20054;-74
2022/06/03 11:49:53;;;;;;;2.42;1.98;;;25.00;91.50;;;;;;4969212;28;20137;-73
2022/06/03 11:52:21;;;;;;;2.25;1.70;;;25.00;91.40;;;;;;4960245;28;20162;-73
2022/06/03 11:54:48;;;;;;;2.60;1.90;;;25.20;91.50;;;;;;4971636;28;20338;-73
2022/06/03 11:57:15;;;;;;;1.35;1.10;;;25.40;91.70;;;;;;4962888;28;20093;-73
2022/06/03 11:59:53;;;;;;;1.98;1.60;;;25.60;91.10;;;;;;4972532;28;20481;-73
2022/06/03 12:02:23;;;;;;;1.90;1.60;;;25.60;89.70;;;;;;4947000;28;20509;-73
2022/06/03 12:04:51;;;;;;;1.85;1.52;;;25.50;89.30;;;;;;4964219;28;20054;-73
2022/06/03 12:07:21;;;;;;;1.80;1.40;;;25.70;89.00;;;;;;4973281;28;20468;-73
2022/06/03 12:10:10;;;;;;;3.83;2.25;;;25.70;87.50;;;;;;4990258;28;20108;-72
2022/06/03 12:15:35;;;;;;;2.13;1.70;;;26.20;86.50;;;;;;4983211;28;20152;-73
2022/06/03 12:18:11;;;;;;;3.10;1.63;;;26.40;85.80;;;;;;4975744;28;20054;-73
2022/06/03 12:20:47;;;;;;;2.63;1.80;;;26.40;83.90;;;;;;4993212;28;20481;-73
2022/06/03 12:23:14;;;;;;;2.15;1.67;;;26.70;84.00;;;;;;4995299;28;20049;-73
2022/06/03 12:25:51;;;;;;;2.00;1.60;;;27.20;82.90;;;;;;4987972;28;20112;-73
2022/06/03 12:28:42;;;;;;;2.63;1.67;;;27.80;81.60;;;;;;4989312;28;20504;-73
2022/06/03 12:31:19;;;;;;;2.42;1.88;;;28.40;79.60;;;;;;4978579;28;20605;-72
2022/06/03 12:33:49;;;;;;;2.42;1.70;;;28.30;78.30;;;;;;4991612;28;20093;-73
2022/06/03 12:36:37;;;;;;;2.78;1.60;;;28.20;78.00;;;;;;4973654;28;20141;-73
2022/06/03 12:39:08;;;;;;;2.75;1.60;;;28.60;75.90;;;;;;4997391;28;20060;-73
2022/06/03 12:41:46;;;;;;;3.10;2.38;;;28.30;74.90;;;;;;4993823;28;20531;-71
2022/06/03 12:44:33;;;;;;;4.32;2.45;;;28.40;74.20;;;;;;4995385;28;20101;-71
2022/06/03 12:47:18;;;;;;;3.67;2.30;;;28.30;74.40;;;;;;4971993;28;20088;-72
2022/06/03 12:49:46;;;;;;;2.42;1.83;;;28.70;72.70;;;;;;4978454;28;20438;-72
2022/06/03 12:52:25;;;;;;;2.55;1.60;;;29.10;72.40;;;;;;4980233;28;20046;-72
2022/06/03 12:55:01;;;;;;;2.58;1.38;;;29.40;71.40;;;;;;4975480;28;20505;-72
2022/06/03 12:57:31;;;;;;;2.25;1.70;;;29.30;72.50;;;;;;4989316;28;20423;-71
2022/06/03 13:00:04;;;;;;;1.80;1.30;;;28.80;71.50;;;;;;4980065;28;20081;-71
2022/06/03 13:02:36;;;;;;;2.03;1.30;;;29.10;71.50;;;;;;4980813;28;20081;-72
2022/06/03 13:05:11;;;;;;;1.75;1.15;;;29.30;69.90;;;;;;4981401;28;20104;-71
2022/06/03 13:07:59;;;;;;;1.40;0.90;;;29.40;70.80;;;;;;4965704;28;20049;-72
2022/06/03 13:10:28;;;;;;;2.10;1.40;;;30.30;68.80;;;;;;4967910;28;20501;-73
2022/06/03 13:12:58;;;;;;;2.08;1.25;;;30.50;66.70;;;;;;4980668;28;20517;-73
2022/06/03 13:15:25;;;;;;;1.42;1.20;;;30.50;65.50;;;;;;4983434;28;20489;-73
2022/06/03 13:18:12;;;;;;;1.52;1.00;;;30.60;65.80;;;;;;4997716;28;20066;-72
2022/06/03 13:20:48;;;;;;;1.58;1.15;;;30.60;64.30;;;;;;4993813;28;20050;-74
2022/06/03 13:23:24;;;;;;;2.53;1.73;;;30.30;63.90;;;;;;4998809;28;20046;-73
2022/06/03 13:25:52;;;;;;;2.38;1.70;;;29.30;64.00;;;;;;4992269;28;20057;-72
2022/06/03 13:28:21;;;;;;;2.40;2.00;;;28.90;64.10;;;;;;4948008;28;20109;-73
2022/06/03 13:31:09;;;;;;;2.38;1.67;;;28.50;64.70;;;;;;4973451;28;20126;-73
2022/06/03 13:34:01;;;;;;;2.50;1.95;;;27.90;66.10;;;;;;4991127;28;20058;-72
2022/06/03 13:36:47;;;;;;;2.28;1.35;;;27.40;66.10;;;;;;4991929;28;20497;-72
2022/06/03 13:39:28;;;;;;;2.53;1.80;;;27.00;66.50;;;;;;4996263;28;20129;-72
2022/06/03 13:44:46;;;;;;;3.17;2.17;;;26.50;67.40;;;;;;4980017;28;20160;-72
2022/06/03 13:47:19;;;;;;;2.60;1.45;;;26.30;67.60;;;;;;4985557;28;20121;-73
2022/06/03 13:49:57;;;;;;;1.88;1.50;;;26.70;68.60;;;;;;4981842;28;20132;-72
2022/06/03 13:52:28;;;;;;;2.05;1.67;;;27.30;67.50;;;;;;4958436;28;20503;-73
2022/06/03 13:55:25;;;;;;;2.10;1.55;;;27.40;66.90;;;;;;4964911;28;20108;-72
2022/06/03 13:58:16;;;;;;;2.30;1.67;;;27.00;67.30;;;;;;5002877;28;20045;-73
2022/06/03 14:00:49;;;;;;;1.50;1.15;;;27.50;68.10;;;;;;5003821;28;20065;-73
2022/06/03 14:03:20;;;;;;;2.50;1.30;;;27.80;68.20;;;;;;5003912;28;20049;-72
2022/06/03 14:05:50;;;;;;;2.22;1.35;;;27.70;67.50;;;;;;5003834;28;20134;-73
2022/06/03 14:08:28;;;;;;;1.60;1.02;;;27.30;68.90;;;;;;5004196;28;20141;-72
2022/06/03 14:11:04;;;;;;;2.25;1.48;;;27.00;69.60;;;;;;4985950;28;20053;-72
2022/06/03 14:13:53;;;;;;;2.40;1.40;;;26.40;68.30;;;;;;4986549;28;20145;-73
2022/06/03 14:16:23;;;;;;;1.73;1.10;;;25.90;70.90;;;;;;4986092;28;20528;-73
2022/06/03 14:19:08;;;;;;;1.73;1.40;;;25.60;70.40;;;;;;5004188;28;20124;-73
2022/06/03 14:21:50;;;;;;;3.00;1.75;;;25.30;71.10;;;;;;5003698;28;20124;-73
2022/06/03 14:24:34;;;;;;;1.92;1.25;;;25.00;71.40;;;;;;4986073;28;20089;-72
2022/06/03 14:27:13;;;;;;;3.45;1.88;;;24.80;70.20;;;;;;4985789;28;20085;-72
2022/06/03 14:29:47;;;;;;;3.15;1.92;;;24.50;71.80;;;;;;4985858;28;20144;-73